Погода Дмитриадовкана 2 недели

Ростовская область, Россия

15 - 28 июля
  • 15июля
    Сегодня
    +26°
    +35°
    Ясно и безоблачно
    ВремяПогодаТемператураВлажностьДавлениеВетер, м/сВероятность осадков
    00:00Ясно и безоблачно+27°C44 %757 мм2.5 м/с2 %
    03:00Ясно и безоблачно+25°C52 %757 мм2.4 м/с2 %
    06:00Ясно и безоблачно+24°C51 %757 мм2.1 м/с2 %
    09:00Ясно и безоблачно+30°C35 %757 мм1.8 м/с2 %
    12:00Практически безоблачно+34°C33 %757 мм1.9 м/с2 %
    15:00Ясно и безоблачно+35°C37 %756 мм1.6 м/с2 %
    18:00Облачно с прояснениями+34°C38 %755 мм1.5 м/с2 %
    21:00Небольшая облачность+31°C44 %756 мм1.8 м/с2 %
  • 16июля
    Вторник
    +26°
    +37°
    Небольшая облачность
    ВремяПогодаТемператураВлажностьДавлениеВетер, м/сВероятность осадков
    00:00Небольшая облачность+29°C52 %756 мм1.8 м/с2 %
    03:00Ясно и безоблачно+27°C56 %756 мм2.0 м/с2 %
    06:00Ясно и безоблачно+26°C57 %756 мм2.3 м/с2 %
    09:00Ясно и безоблачно+32°C41 %757 мм1.7 м/с2 %
    12:00Ясно и безоблачно+36°C33 %757 мм2.0 м/с2 %
    15:00Небольшая облачность+35°C33 %756 мм1.4 м/с2 %
    18:00Небольшая облачность+35°C35 %755 мм1.3 м/с2 %
    21:00Ясно и безоблачно+32°C42 %756 мм1.3 м/с2 %
  • 17июля
    Среда
    +26°
    +36°
    Небольшая облачность
    ВремяПогодаТемператураВлажностьДавлениеВетер, м/сВероятность осадков
    00:00Ясно и безоблачно+29°C45 %756 мм2.5 м/с2 %
    03:00Ясно и безоблачно+27°C50 %756 мм2.6 м/с2 %
    06:00Ясно и безоблачно+26°C53 %757 мм2.5 м/с2 %
    09:00Ясно и безоблачно+32°C41 %757 мм1.9 м/с2 %
    12:00Ясно и безоблачно+36°C33 %757 мм2.1 м/с2 %
    15:00Небольшая облачность+36°C27 %757 мм1.6 м/с2 %
    18:00Практически безоблачно+35°C32 %756 мм1.1 м/с2 %
    21:00Ясно и безоблачно+32°C39 %757 мм1.4 м/с2 %
  • 18июля
    Четверг
    +26°
    +36°
    Ясно и безоблачно
    ВремяПогодаТемператураВлажностьДавлениеВетер, м/сВероятность осадков
    00:00Ясно и безоблачно+30°C45 %757 мм1.6 м/с2 %
    03:00Ясно и безоблачно+27°C51 %757 мм1.8 м/с2 %
    06:00Ясно и безоблачно+26°C55 %757 мм1.7 м/с2 %
    09:00Ясно и безоблачно+32°C45 %758 мм1.0 м/с2 %
    12:00Ясно и безоблачно+35°C38 %757 мм0.9 м/с2 %
    15:00Ясно и безоблачно+36°C33 %756 мм0.9 м/с2 %
    18:00Ясно и безоблачно+35°C37 %755 мм2.0 м/с2 %
    21:00Ясно и безоблачно+31°C53 %756 мм1.3 м/с2 %
  • 19июля
    Пятница
    +24°
    +34°
    Облачно с прояснениями
    ВремяПогодаТемператураВлажностьДавлениеВетер, м/сВероятность осадков
    00:00Ясно и безоблачно+30°C45 %756 мм1.6 м/с2 %
    03:00Ясно и безоблачно+28°C53 %756 мм1.4 м/с2 %
    06:00Ясно и безоблачно+27°C58 %756 мм1.9 м/с2 %
    09:00Ясно и безоблачно+32°C48 %755 мм1.3 м/с2 %
    12:00Облачно с прояснениями+34°C39 %755 мм2.3 м/с8 %
    15:00Облачно с прояснениями+33°C38 %755 мм2.6 м/с20 %
    18:00Облачно с прояснениями+33°C37 %754 мм1.5 м/с19 %
    21:00Облачно с прояснениями+30°C40 %754 мм2.4 м/с3 %
Мы используем cookies
Соглашаюсь